Time;durP1;ratioP1;P1;durP2;ratioP2;P2;SDS_P1;SDS_P2;PMS_P1;PMS_P2;Temp;Humidity;BMP_temperature;BMP_pressure;BME280_temperature;BME280_humidity;BME280_pressure;Samples;Min_cycle;Max_cycle;Signal;HPM_P1;HPM_P2
2023/08/13 00:00:07;;;;;;;5.13;4.40;;;;;;;20.69;62.41;97409.22;5067449;28;20188;-75
2023/08/13 00:02:35;;;;;;;4.90;4.27;;;;;;;20.61;62.54;97407.16;5068435;28;20758;-76
2023/08/13 00:05:04;;;;;;;6.13;4.23;;;;;;;20.43;63.33;97406.00;5068478;28;20334;-78
2023/08/13 00:07:32;;;;;;;6.13;4.70;;;;;;;20.47;63.38;97402.16;5068187;28;20303;-75
2023/08/13 00:09:59;;;;;;;7.80;5.13;;;;;;;20.25;63.94;97412.72;5068171;28;20672;-77
2023/08/13 00:12:27;;;;;;;10.93;5.37;;;;;;;20.04;64.50;97402.06;5068048;28;20208;-75
2023/08/13 00:14:54;;;;;;;6.27;5.47;;;;;;;19.88;65.30;97400.72;5068407;28;20193;-76
2023/08/13 00:17:22;;;;;;;6.17;5.10;;;;;;;19.89;65.21;97399.75;5066801;28;20196;-77
2023/08/13 00:19:49;;;;;;;6.70;5.00;;;;;;;19.92;65.07;97391.66;5067925;28;20286;-76
2023/08/13 00:22:17;;;;;;;6.03;4.50;;;;;;;20.06;64.45;97402.78;5068358;28;20237;-76
2023/08/13 00:24:45;;;;;;;6.10;5.00;;;;;;;20.09;64.69;97399.06;5067841;28;20228;-76
2023/08/13 00:27:12;;;;;;;9.47;4.77;;;;;;;20.04;64.62;97388.91;5066488;28;20765;-76
2023/08/13 00:29:40;;;;;;;5.07;4.20;;;;;;;19.88;65.22;97401.56;5066487;28;20296;-75
2023/08/13 00:32:08;;;;;;;4.40;4.00;;;;;;;19.56;66.36;97408.44;5066519;28;20694;-75
2023/08/13 00:34:35;;;;;;;4.53;4.10;;;;;;;19.23;67.38;97410.94;5050072;28;20200;-75
2023/08/13 00:37:04;;;;;;;6.63;4.33;;;;;;;19.28;67.50;97399.16;5065178;28;20278;-75
2023/08/13 00:39:32;;;;;;;7.57;4.60;;;;;;;19.06;68.14;97401.66;5066632;28;20687;-74
2023/08/13 00:41:59;;;;;;;5.00;4.30;;;;;;;19.23;68.08;97409.16;5066190;28;20205;-75
2023/08/13 00:44:27;;;;;;;5.87;4.20;;;;;;;19.40;67.49;97398.25;5067535;28;20792;-74
2023/08/13 00:46:55;;;;;;;5.57;4.37;;;;;;;19.51;67.44;97400.09;5066201;28;20192;-75
2023/08/13 00:49:23;;;;;;;5.60;4.00;;;;;;;19.22;68.51;97390.88;5067523;28;20192;-76
2023/08/13 00:51:52;;;;;;;5.47;4.13;;;;;;;19.10;68.58;97392.63;5067712;28;20189;-75
2023/08/13 00:54:21;;;;;;;5.40;4.30;;;;;;;18.90;69.49;97390.63;5049374;28;20253;-76
2023/08/13 00:56:51;;;;;;;5.00;4.50;;;;;;;19.04;69.00;97403.56;5066324;28;20193;-76
2023/08/13 00:59:20;;;;;;;6.17;4.57;;;;;;;19.03;68.81;97380.06;5067297;28;20188;-74
2023/08/13 01:01:47;;;;;;;6.80;4.57;;;;;;;19.18;68.83;97400.78;5065590;28;20675;-75
2023/08/13 01:04:15;;;;;;;4.77;4.23;;;;;;;19.14;68.90;97401.97;5065912;28;20231;-76
2023/08/13 01:07:07;;;;;;;5.30;4.80;;;;;;;19.20;68.61;97393.63;5067125;28;20184;-79
2023/08/13 01:10:09;;;;;;;4.87;4.33;;;;;;;19.14;68.33;97393.25;5067748;28;20202;-78
2023/08/13 01:12:39;;;;;;;5.20;4.70;;;;;;;19.18;67.78;97386.81;5049416;28;20243;-78
2023/08/13 01:15:07;;;;;;;5.40;4.90;;;;;;;19.04;68.35;97397.50;5067061;28;20662;-76
2023/08/13 01:17:36;;;;;;;6.17;4.87;;;;;;;18.99;68.25;97391.75;5065856;28;20907;-76
2023/08/13 01:20:08;;;;;;;6.80;5.33;;;;;;;19.02;68.10;97379.22;5066861;28;20309;-76
2023/08/13 01:22:45;;;;;;;6.10;5.50;;;;;;;19.21;68.12;97383.94;5067292;28;20196;-77
2023/08/13 01:25:13;;;;;;;8.57;6.40;;;;;;;19.13;67.95;97371.41;5066844;28;20735;-76
2023/08/13 01:28:08;;;;;;;6.93;4.97;;;;;;;19.39;66.99;97390.50;5066746;28;20594;-76
2023/08/13 01:30:45;;;;;;;5.57;5.07;;;;;;;19.29;66.54;97371.91;5067041;28;20570;-76
2023/08/13 01:33:27;;;;;;;6.47;5.23;;;;;;;19.21;67.41;97395.28;5066594;28;20713;-76
2023/08/13 01:36:00;;;;;;;9.03;5.20;;;;;;;19.23;67.15;97385.50;5067232;28;20228;-76
2023/08/13 01:38:28;;;;;;;6.40;5.30;;;;;;;19.09;67.35;97390.97;5065570;28;20233;-77
2023/08/13 01:40:57;;;;;;;7.43;5.60;;;;;;;19.10;67.74;97386.56;5065828;28;20192;-78
2023/08/13 01:43:24;;;;;;;7.50;5.33;;;;;;;18.85;67.92;97377.03;5066960;28;20646;-76
2023/08/13 01:45:52;;;;;;;10.17;6.10;;;;;;;18.79;68.40;97377.47;5065343;28;20226;-76
2023/08/13 01:48:19;;;;;;;7.17;5.87;;;;;;;18.53;70.07;97386.38;5066725;28;20223;-76
2023/08/13 01:50:47;;;;;;;7.05;5.00;;;;;;;18.37;70.76;97385.78;5065610;28;20204;-77
2023/08/13 01:53:14;;;;;;;6.80;5.73;;;;;;;18.56;70.39;97392.25;5066945;28;20207;-77
2023/08/13 01:55:41;;;;;;;7.90;5.37;;;;;;;18.40;70.95;97377.69;5048503;28;20207;-75
2023/08/13 01:58:10;;;;;;;6.10;5.40;;;;;;;18.41;70.82;97374.13;5065281;28;20269;-76
2023/08/13 02:00:37;;;;;;;6.57;5.50;;;;;;;18.38;70.88;97390.91;5065366;28;20206;-76
2023/08/13 02:03:04;;;;;;;8.63;5.67;;;;;;;17.78;71.82;97314.00;5065224;28;20645;-75
2023/08/13 02:05:32;;;;;;;5.77;5.20;;;;;;;18.49;71.08;97379.69;5066505;28;20238;-77
2023/08/13 02:07:59;;;;;;;8.53;5.27;;;;;;;18.39;70.84;97384.72;5065247;28;20283;-76
2023/08/13 02:10:29;;;;;;;6.80;5.40;;;;;;;17.63;nan;97341.25;5066672;28;20194;-76
2023/08/13 02:12:56;;;;;;;8.50;4.73;;;;;;;17.96;72.51;97370.34;5066731;28;20240;-76
2023/08/13 02:15:24;;;;;;;6.63;5.10;;;;;;;17.91;72.70;97376.88;5065054;28;20650;-74
2023/08/13 02:17:51;;;;;;;6.10;5.50;;;;;;;17.59;73.36;97385.16;5066496;28;20244;-74
2023/08/13 02:20:18;;;;;;;7.93;5.10;;;;;;;17.86;72.43;97378.03;5066472;28;20901;-74
2023/08/13 02:22:45;;;;;;;5.60;5.10;;;;;;;18.03;71.55;97365.53;5066022;28;20191;-79
2023/08/13 02:25:13;;;;;;;7.83;5.10;;;;;;;17.73;72.40;97366.69;5068465;28;20223;-77
2023/08/13 02:27:40;;;;;;;5.80;4.70;;;;;;;17.83;73.30;97374.75;5064882;28;20694;-76
2023/08/13 02:30:09;;;;;;;5.60;5.07;;;;;;;18.07;72.24;97382.72;5066642;28;20197;-77
2023/08/13 02:32:36;;;;;;;5.73;5.00;;;;;;;17.62;73.57;97390.16;5048491;28;20187;-77
2023/08/13 02:35:04;;;;;;;5.07;4.60;;;;;;;17.69;73.41;97380.13;5065359;28;20543;-77
2023/08/13 02:37:33;;;;;;;6.97;5.00;;;;;;;17.55;73.32;97386.31;5066509;28;20220;-78
2023/08/13 02:40:02;;;;;;;5.53;5.00;;;;;;;17.56;73.51;97392.34;5067077;28;20190;-82
2023/08/13 02:42:29;;;;;;;8.47;5.03;;;;;;;17.57;73.56;97384.41;5065155;28;20923;-79
2023/08/13 02:44:56;;;;;;;7.37;5.27;;;;;;;17.71;72.88;97388.69;5049221;28;20222;-80
2023/08/13 02:47:24;;;;;;;6.13;4.67;;;;;;;17.85;71.92;97384.19;5064964;28;20198;-81
2023/08/13 02:49:52;;;;;;;5.80;5.20;;;;;;;17.35;73.77;97383.31;5065002;28;20197;-77
2023/08/13 02:52:19;;;;;;;22.00;8.30;;;;;;;17.33;74.22;97396.50;5066318;28;20251;-81
2023/08/13 02:54:47;;;;;;;7.37;5.37;;;;;;;17.37;74.10;97394.53;5048361;28;20218;-80
2023/08/13 02:57:14;;;;;;;6.23;5.30;;;;;;;17.38;74.12;97394.41;5065264;28;20654;-78
2023/08/13 02:59:42;;;;;;;6.00;5.40;;;;;;;17.47;74.04;97399.06;5065119;28;20242;-80
2023/08/13 03:02:09;;;;;;;5.73;5.10;;;;;;;17.39;73.64;97390.88;5068534;28;20722;-78
2023/08/13 03:04:37;;;;;;;5.80;4.70;;;;;;;17.52;73.08;97396.97;5068333;28;20223;-76
2023/08/13 03:07:04;;;;;;;6.63;4.90;;;;;;;17.46;73.09;97405.22;5069873;28;20750;-78
2023/08/13 03:09:31;;;;;;;5.73;4.97;;;;;;;17.64;72.79;97405.81;5070055;28;20217;-82
2023/08/13 03:11:59;;;;;;;7.17;4.90;;;;;;;18.04;71.18;97407.34;5068547;28;20199;-77
2023/08/13 03:14:26;;;;;;;5.67;5.17;;;;;;;17.68;70.55;97334.72;5069823;28;20572;-79
2023/08/13 03:16:53;;;;;;;7.33;5.30;;;;;;;17.65;72.40;97382.13;5069407;28;20237;-79
2023/08/13 03:19:22;;;;;;;6.40;5.17;;;;;;;17.97;71.49;97403.47;5068635;28;20566;-82
2023/08/13 03:21:49;;;;;;;5.83;4.90;;;;;;;17.86;71.48;97406.00;5069424;28;20542;-77
2023/08/13 03:24:17;;;;;;;7.03;6.03;;;;;;;17.70;72.34;97406.19;5084036;28;20222;-78
2023/08/13 03:26:44;;;;;;;6.93;4.60;;;;;;;17.84;71.97;97413.13;5075619;28;20220;-82
2023/08/13 03:29:12;;;;;;;7.53;4.60;;;;;;;17.57;72.93;97421.09;5068842;28;20210;-81
2023/08/13 03:31:39;;;;;;;6.00;4.77;;;;;;;17.49;72.92;97397.19;5068961;28;20207;-80
2023/08/13 03:34:17;;;;;;;7.33;5.17;;;;;;;17.94;71.83;97415.94;5068581;28;20219;-83
2023/08/13 03:36:44;;;;;;;5.23;4.73;;;;;;;18.10;70.75;97403.44;5051809;28;20213;-84
2023/08/13 03:39:11;;;;;;;6.07;5.30;;;;;;;17.82;71.19;97415.03;5069322;28;20191;-82
2023/08/13 03:41:39;;;;;;;6.23;4.87;;;;;;;18.02;71.00;97418.88;5069518;28;20191;-83
2023/08/13 03:44:08;;;;;;;5.93;5.03;;;;;;;18.20;69.94;97431.53;5067638;28;20184;-82
2023/08/13 03:46:36;;;;;;;6.20;4.80;;;;;;;17.93;71.24;97432.63;5069618;28;20279;-84
2023/08/13 03:49:03;;;;;;;4.97;4.47;;;;;;;18.17;70.73;97421.28;5051466;28;20207;-83
2023/08/13 03:51:30;;;;;;;9.27;6.03;;;;;;;17.93;71.53;97430.81;5067807;28;20179;-83
2023/08/13 03:53:57;;;;;;;6.70;5.00;;;;;;;18.03;70.98;97418.78;5069734;28;20520;-82
2023/08/13 03:56:31;;;;;;;5.67;4.63;;;;;;;18.34;70.17;97422.72;5067860;28;20188;-83
2023/08/13 03:58:59;;;;;;;5.43;4.50;;;;;;;18.37;70.09;97432.97;5068075;28;21298;-85
2023/08/13 04:01:28;;;;;;;6.30;5.13;;;;;;;18.11;70.58;97420.88;5069775;28;20219;-81
2023/08/13 04:03:57;;;;;;;9.00;4.77;;;;;;;18.57;69.26;97421.94;5051291;28;20187;-83
2023/08/13 04:06:25;;;;;;;5.20;4.50;;;;;;;18.53;68.54;97420.47;5053379;28;20204;-83
2023/08/13 04:08:53;;;;;;;7.47;4.50;;;;;;;18.97;67.28;97438.28;5080012;28;20251;-77
2023/08/13 04:11:20;;;;;;;7.17;4.63;;;;;;;19.04;66.83;97434.25;5082098;28;20271;-76
2023/08/13 04:13:47;;;;;;;6.10;4.33;;;;;;;19.18;66.21;97431.47;5086872;28;20188;-77
2023/08/13 04:16:14;;;;;;;4.80;4.30;;;;;;;19.63;64.72;97441.19;5086608;28;20410;-76
2023/08/13 04:18:45;;;;;;;6.70;4.90;;;;;;;19.78;63.88;97441.81;5087232;28;20195;-75
2023/08/13 04:21:13;;;;;;;5.13;4.63;;;;;;;19.62;65.09;97436.88;5087955;28;20203;-78
2023/08/13 04:23:40;;;;;;;7.20;5.00;;;;;;;20.03;63.60;97450.31;5086993;28;20211;-77
2023/08/13 04:26:08;;;;;;;5.83;4.70;;;;;;;20.26;62.66;97459.09;5084565;28;20213;-81
2023/08/13 04:28:35;;;;;;;10.13;4.77;;;;;;;20.68;62.19;97449.63;5084509;28;20215;-82
2023/08/13 04:31:03;;;;;;;6.93;5.00;;;;;;;20.90;60.66;97460.97;5084466;28;20694;-82
2023/08/13 04:33:34;;;;;;;8.17;5.13;;;;;;;20.96;60.74;97447.28;5070753;28;20181;-78
2023/08/13 04:36:02;;;;;;;6.10;5.33;;;;;;;20.83;60.87;97433.47;5085871;28;20257;-78
2023/08/13 04:38:30;;;;;;;9.20;5.47;;;;;;;21.09;60.05;97447.19;5084317;28;20199;-79
2023/08/13 04:41:01;;;;;;;6.50;4.40;;;;;;;21.34;59.88;97451.28;5085013;28;20285;-78
2023/08/13 04:43:30;;;;;;;6.57;4.90;;;;;;;21.37;59.72;97424.69;5084982;28;20196;-75
2023/08/13 04:45:57;;;;;;;5.43;4.80;;;;;;;21.53;58.61;97432.97;5083810;28;20218;-76
2023/08/13 04:48:43;;;;;;;7.70;5.40;;;;;;;21.48;58.64;97446.53;5081524;28;20195;-82
2023/08/13 04:51:16;;;;;;;6.67;4.83;;;;;;;21.51;58.92;97450.72;5078435;28;20186;-77
2023/08/13 04:53:44;;;;;;;5.73;5.13;;;;;;;21.70;58.33;97450.88;5081532;28;20199;-79
2023/08/13 04:56:12;;;;;;;8.00;5.30;;;;;;;21.41;59.29;97442.72;5077464;28;20190;-79
2023/08/13 04:58:41;;;;;;;6.67;5.27;;;;;;;21.50;59.35;97454.31;5075887;28;20187;-82
2023/08/13 05:01:10;;;;;;;10.03;5.03;;;;;;;21.51;59.22;97445.44;5068325;28;20231;-83
2023/08/13 05:03:40;;;;;;;8.53;5.13;;;;;;;21.59;59.46;97433.31;5051423;28;20195;-82
2023/08/13 05:06:07;;;;;;;6.43;5.10;;;;;;;21.38;60.28;97436.88;5067902;28;20276;-85
2023/08/13 05:08:36;;;;;;;5.50;4.90;;;;;;;21.02;61.79;97435.44;5067902;28;20519;-86
2023/08/13 05:11:06;;;;;;;6.90;4.70;;;;;;;21.59;60.54;97448.28;5067492;28;20674;-77
2023/08/13 05:13:33;;;;;;;5.90;4.33;;;;;;;21.69;60.56;97451.81;5066066;28;20210;-78
2023/08/13 05:16:01;;;;;;;8.60;4.40;;;;;;;21.81;61.18;97463.97;5067174;28;20243;-79
2023/08/13 05:18:30;;;;;;;7.30;4.90;;;;;;;22.07;60.18;97460.00;5066122;28;20196;-84
2023/08/13 05:20:57;;;;;;;6.07;4.30;;;;;;;22.32;59.00;97461.38;5066001;28;20612;-83
2023/08/13 05:23:24;;;;;;;4.77;4.20;;;;;;;22.55;58.78;97463.69;5065102;28;20659;-76
2023/08/13 05:25:52;;;;;;;5.57;4.70;;;;;;;22.74;57.70;97460.31;5066556;28;20239;-76
2023/08/13 05:28:19;;;;;;;5.93;4.73;;;;;;;22.88;57.96;97465.22;5067739;28;20630;-80
2023/08/13 05:30:47;;;;;;;5.17;3.87;;;;;;;23.07;57.25;97464.41;5049236;28;20244;-82
2023/08/13 05:33:15;;;;;;;6.00;4.23;;;;;;;22.92;56.36;97442.00;5066081;28;20260;-78
2023/08/13 05:35:42;;;;;;;8.20;5.20;;;;;;;22.88;56.24;97446.72;5061842;28;21069;-78
2023/08/13 05:38:10;;;;;;;7.43;4.73;;;;;;;22.77;56.34;97448.66;5082051;28;20205;-79
2023/08/13 05:40:37;;;;;;;6.90;5.00;;;;;;;23.00;56.73;97460.66;5065025;28;20195;-82
2023/08/13 05:43:04;;;;;;;5.27;4.60;;;;;;;23.19;55.54;97450.94;5065351;28;20275;-79
2023/08/13 05:45:33;;;;;;;6.47;4.93;;;;;;;23.43;55.43;97445.31;5065578;28;20227;-76
2023/08/13 05:48:00;;;;;;;6.87;5.37;;;;;;;23.13;54.11;97408.38;5066207;28;20249;-77
2023/08/13 05:50:29;;;;;;;8.63;5.07;;;;;;;23.35;54.85;97455.72;5065558;28;20197;-77
2023/08/13 05:52:56;;;;;;;4.83;3.97;;;;;;;23.48;55.85;97461.56;5065246;28;20275;-77
2023/08/13 05:55:23;;;;;;;6.37;4.80;;;;;;;23.81;54.02;97447.91;5065386;28;20213;-77
2023/08/13 05:57:51;;;;;;;12.73;5.27;;;;;;;23.97;53.54;97442.84;5065396;28;20668;-77
2023/08/13 06:00:18;;;;;;;10.73;5.07;;;;;;;24.06;53.09;97434.09;5065120;28;20573;-77
2023/08/13 06:02:46;;;;;;;6.20;4.70;;;;;;;23.91;52.77;97448.72;5065628;28;20782;-78
2023/08/13 06:05:13;;;;;;;6.67;4.40;;;;;;;24.01;53.19;97449.53;5066391;28;20234;-78
2023/08/13 06:07:41;;;;;;;9.10;4.60;;;;;;;24.03;54.35;97441.44;5066910;28;20190;-77
2023/08/13 06:10:08;;;;;;;5.17;4.37;;;;;;;23.99;53.75;97448.84;5047903;28;20269;-76
2023/08/13 06:12:35;;;;;;;6.57;5.57;;;;;;;24.37;52.62;97439.13;5065143;28;20195;-78
2023/08/13 06:15:04;;;;;;;7.30;4.27;;;;;;;24.49;51.95;97443.25;5065203;28;20187;-76
2023/08/13 06:17:32;;;;;;;6.00;4.20;;;;;;;24.50;52.47;97455.53;5065716;28;20215;-80
2023/08/13 06:20:00;;;;;;;6.07;4.20;;;;;;;24.65;53.30;97451.41;5055558;28;20204;-85
2023/08/13 06:22:31;;;;;;;4.60;3.83;;;;;;;24.64;52.11;97450.59;5061899;28;20586;-79
2023/08/13 06:24:58;;;;;;;7.33;4.73;;;;;;;24.87;52.43;97453.72;5065087;28;20582;-76
2023/08/13 06:27:25;;;;;;;5.53;4.60;;;;;;;24.64;52.36;97425.91;5065924;28;20743;-76
2023/08/13 06:29:52;;;;;;;6.40;3.90;;;;;;;24.56;51.99;97378.97;5064656;28;20212;-79
2023/08/13 06:32:36;;;;;;;7.37;4.17;;;;;;;24.79;50.75;97435.06;5061161;28;20734;-76
2023/08/13 06:35:04;;;;;;;6.33;4.63;;;;;;;25.17;51.31;97460.47;5067386;28;20211;-80
2023/08/13 06:37:32;;;;;;;6.37;4.10;;;;;;;25.35;51.44;97453.41;5067269;28;20232;-77
2023/08/13 06:40:16;;;;;;;5.73;4.73;;;;;;;25.49;51.03;97466.16;5069377;28;20188;-75
2023/08/13 06:42:45;;;;;;;5.93;4.53;;;;;;;25.74;50.66;97454.75;5071377;28;20215;-85
2023/08/13 06:45:12;;;;;;;7.90;5.37;;;;;;;25.76;49.29;97448.28;5066943;28;20225;-76
2023/08/13 06:47:41;;;;;;;7.63;4.57;;;;;;;25.76;49.89;97440.34;5071503;28;20197;-74
2023/08/13 06:50:12;;;;;;;7.07;3.70;;;;;;;25.84;49.78;97464.28;5066845;28;20232;-78
2023/08/13 06:52:39;;;;;;;8.53;4.40;;;;;;;25.88;48.50;97456.03;5069146;28;20246;-79
2023/08/13 06:55:07;;;;;;;5.60;3.87;;;;;;;26.00;47.52;97457.44;5093362;28;20204;-75
2023/08/13 06:57:35;;;;;;;4.97;3.70;;;;;;;25.95;47.41;97454.41;5045826;28;20200;-77
2023/08/13 07:00:03;;;;;;;5.93;4.00;;;;;;;26.04;46.37;97450.81;5068284;28;20615;-77
2023/08/13 07:02:31;;;;;;;5.23;3.60;;;;;;;26.01;46.40;97453.81;5068432;28;20684;-79
2023/08/13 07:04:58;;;;;;;7.47;3.83;;;;;;;26.28;45.78;97448.34;5068230;28;20205;-76
2023/08/13 07:07:26;;;;;;;11.83;4.10;;;;;;;26.25;46.34;97448.69;5069909;28;20185;-77
2023/08/13 07:09:53;;;;;;;6.10;3.87;;;;;;;26.46;45.77;97443.81;5068441;28;20297;-83
2023/08/13 07:12:20;;;;;;;4.83;3.53;;;;;;;26.59;44.58;97449.50;5070281;28;20214;-82
2023/08/13 07:14:47;;;;;;;3.70;3.00;;;;;;;26.53;41.41;97443.00;5071905;28;20217;-84
2023/08/13 07:17:14;;;;;;;4.40;3.27;;;;;;;26.75;41.08;97451.44;5070380;28;20209;-83
2023/08/13 07:19:41;;;;;;;6.53;3.50;;;;;;;26.65;41.15;97406.34;5069407;28;20190;-77
2023/08/13 07:22:08;;;;;;;4.60;3.17;;;;;;;27.10;40.54;97440.59;5069757;28;20216;-75
2023/08/13 07:24:35;;;;;;;4.97;2.90;;;;;;;27.18;39.98;97448.59;5070754;28;20186;-81
2023/08/13 07:27:02;;;;;;;5.20;3.40;;;;;;;27.16;40.22;97442.59;5068019;28;20253;-77
2023/08/13 07:29:29;;;;;;;6.73;3.63;;;;;;;27.26;39.37;97440.63;5069366;28;20307;-75
2023/08/13 07:31:57;;;;;;;3.47;3.17;;;;;;;27.30;39.14;97439.28;5069046;28;20700;-80
2023/08/13 07:34:40;;;;;;;5.97;3.00;;;;;;;27.33;38.72;97449.59;5066007;28;20225;-78
2023/08/13 07:37:07;;;;;;;4.53;3.27;;;;;;;27.24;38.77;97443.41;5056522;28;20236;-75
2023/08/13 07:39:35;;;;;;;5.43;3.20;;;;;;;27.30;39.14;97440.13;5068299;28;20235;-79
2023/08/13 07:42:03;;;;;;;4.33;3.70;;;;;;;27.41;38.85;97446.16;5050916;28;20193;-80
2023/08/13 07:44:30;;;;;;;10.77;3.83;;;;;;;27.45;38.07;97437.66;5068133;28;20200;-75
2023/08/13 07:46:58;;;;;;;10.83;4.73;;;;;;;27.83;36.43;97437.03;5047787;28;20221;-78
2023/08/13 07:49:26;;;;;;;5.33;3.67;;;;;;;27.77;37.51;97426.19;5059410;28;20229;-75
2023/08/13 07:51:54;;;;;;;6.30;3.10;;;;;;;27.92;37.99;97445.84;5062911;28;20197;-80
2023/08/13 07:54:22;;;;;;;4.53;3.20;;;;;;;27.39;38.44;97436.50;5064272;28;20189;-78
2023/08/13 07:56:49;;;;;;;4.10;2.83;;;;;;;27.42;37.94;97447.81;5067014;28;20189;-74
2023/08/13 07:59:16;;;;;;;7.03;4.27;;;;;;;27.67;37.85;97453.00;5068264;28;20213;-78
2023/08/13 08:01:43;;;;;;;3.90;3.30;;;;;;;28.00;37.65;97437.88;5067948;28;20242;-81
2023/08/13 08:04:10;;;;;;;3.50;3.20;;;;;;;27.87;35.94;97426.84;5068197;28;20239;-81
2023/08/13 08:06:37;;;;;;;3.27;2.90;;;;;;;27.74;36.54;97439.88;5067787;28;20307;-79
2023/08/13 08:09:05;;;;;;;4.60;3.00;;;;;;;27.60;36.50;97427.19;5068041;28;20182;-81
2023/08/13 08:11:33;;;;;;;4.13;3.13;;;;;;;27.74;36.38;97435.34;5067476;28;20267;-80
2023/08/13 08:14:02;;;;;;;3.47;2.73;;;;;;;27.57;36.37;97427.53;5066462;28;20277;-81
2023/08/13 08:16:29;;;;;;;7.37;4.53;;;;;;;27.38;35.77;97440.19;5068689;28;20291;-78
2023/08/13 08:18:56;;;;;;;8.50;6.03;;;;;;;27.37;35.84;97433.19;5067964;28;20243;-75
2023/08/13 08:21:23;;;;;;;7.83;3.93;;;;;;;27.30;35.34;97429.50;5067130;28;20277;-76
2023/08/13 08:23:50;;;;;;;3.73;2.63;;;;;;;27.14;35.80;97416.16;5067955;28;20189;-81
2023/08/13 08:26:18;;;;;;;6.63;3.60;;;;;;;26.94;35.88;97436.06;5068459;28;20221;-77
2023/08/13 08:28:45;;;;;;;5.10;3.13;;;;;;;27.17;36.07;97428.28;5067751;28;20197;-76
2023/08/13 08:31:12;;;;;;;6.27;4.20;;;;;;;27.38;35.44;97413.56;5068048;28;20553;-77
2023/08/13 08:33:39;;;;;;;4.70;3.50;;;;;;;27.08;35.85;97432.75;5068147;28;20185;-76
2023/08/13 08:36:06;;;;;;;5.30;3.07;;;;;;;27.00;35.45;97400.84;5050097;28;20217;-79
2023/08/13 08:38:33;;;;;;;3.13;2.63;;;;;;;27.41;35.31;97415.03;5034125;28;20189;-75
2023/08/13 08:41:01;;;;;;;5.50;3.07;;;;;;;27.19;35.91;97424.47;5067923;28;20223;-76
2023/08/13 08:43:30;;;;;;;3.60;3.30;;;;;;;27.27;36.40;97431.63;5067677;28;20246;-75
2023/08/13 08:45:58;;;;;;;4.30;2.80;;;;;;;26.82;35.67;97426.72;5066128;28;20286;-76
2023/08/13 08:48:29;;;;;;;3.20;2.87;;;;;;;27.05;35.60;97416.31;5067522;28;20201;-75
2023/08/13 08:50:56;;;;;;;3.33;2.80;;;;;;;26.91;35.42;97411.63;5067306;28;20262;-76
2023/08/13 08:53:25;;;;;;;3.60;2.73;;;;;;;27.00;35.53;97430.06;5067377;28;20196;-77
2023/08/13 08:55:52;;;;;;;4.83;3.10;;;;;;;27.19;35.97;97423.63;5067894;28;20197;-75
2023/08/13 08:58:20;;;;;;;4.77;2.90;;;;;;;27.52;35.27;97421.88;5066485;28;20251;-75
2023/08/13 09:00:47;;;;;;;5.07;3.27;;;;;;;27.12;35.10;97426.13;5067750;28;20181;-75
2023/08/13 09:03:14;;;;;;;5.13;2.80;;;;;;;26.95;35.29;97420.94;5066090;28;20673;-75
2023/08/13 09:05:41;;;;;;;7.10;2.40;;;;;;;26.76;36.01;97402.59;5065908;28;20204;-74
2023/08/13 09:08:15;;;;;;;6.63;2.50;;;;;;;26.93;35.28;97429.09;5065602;28;20754;-76
2023/08/13 09:10:43;;;;;;;3.87;2.33;;;;;;;26.65;35.69;97409.00;5065825;28;20288;-77
2023/08/13 09:13:11;;;;;;;5.30;3.10;;;;;;;26.81;35.88;97411.75;5065829;28;20673;-76
2023/08/13 09:15:43;;;;;;;4.23;2.87;;;;;;;27.04;35.67;97435.91;5065371;28;20185;-76
2023/08/13 09:18:11;;;;;;;2.83;2.60;;;;;;;26.88;36.06;97418.09;5066807;28;20200;-78
2023/08/13 09:20:46;;;;;;;4.07;2.70;;;;;;;26.85;36.57;97422.91;5066912;28;20181;-75
2023/08/13 09:23:24;;;;;;;4.10;2.57;;;;;;;26.63;36.66;97438.41;5066788;28;20676;-74
2023/08/13 09:25:57;;;;;;;5.13;2.83;;;;;;;26.92;37.23;97427.41;5065532;28;20271;-77
2023/08/13 09:28:25;;;;;;;5.20;2.83;;;;;;;26.85;36.90;97414.94;5064873;28;20695;-75
2023/08/13 09:30:52;;;;;;;3.27;2.50;;;;;;;26.78;37.32;97376.69;5045891;28;20193;-75
2023/08/13 09:33:19;;;;;;;3.13;2.67;;;;;;;26.96;36.66;97403.97;5056876;28;20296;-77
2023/08/13 09:35:47;;;;;;;4.73;3.33;;;;;;;27.12;37.87;97404.03;5065879;28;20228;-78
2023/08/13 09:38:14;;;;;;;3.40;2.73;;;;;;;26.71;37.09;97402.22;5067347;28;20193;-74
2023/08/13 09:40:45;;;;;;;4.30;2.57;;;;;;;26.78;37.56;97409.41;5067182;28;20232;-81
2023/08/13 09:43:19;;;;;;;4.37;2.27;;;;;;;26.84;37.26;97418.56;5067654;28;20193;-82
2023/08/13 09:45:50;;;;;;;4.67;2.60;;;;;;;26.79;37.09;97389.81;5066992;28;20264;-78
2023/08/13 09:48:21;;;;;;;3.50;3.17;;;;;;;27.00;37.37;97408.81;5067093;28;20644;-75
2023/08/13 09:50:50;;;;;;;3.53;2.70;;;;;;;27.11;36.63;97405.84;5066979;28;20189;-76
2023/08/13 09:53:20;;;;;;;5.73;3.33;;;;;;;27.06;36.60;97392.19;5066950;28;20216;-77
2023/08/13 09:55:52;;;;;;;4.57;3.50;;;;;;;26.99;36.73;97401.84;5067047;28;20209;-75
2023/08/13 09:58:19;;;;;;;4.20;2.70;;;;;;;27.12;36.53;97388.88;5066626;28;20700;-75
2023/08/13 10:00:47;;;;;;;4.60;2.60;;;;;;;27.00;36.81;97418.59;5067023;28;20188;-77
2023/08/13 10:03:18;;;;;;;3.97;2.90;;;;;;;26.81;36.91;97397.63;5066890;28;20247;-74
2023/08/13 10:05:47;;;;;;;3.90;3.20;;;;;;;26.99;36.26;97401.84;5066855;28;20205;-77
2023/08/13 10:08:15;;;;;;;4.67;3.37;;;;;;;27.12;35.74;97407.50;5066401;28;20451;-75
2023/08/13 10:10:43;;;;;;;3.83;2.90;;;;;;;27.23;36.90;97403.69;5067917;28;20807;-74
2023/08/13 10:13:10;;;;;;;4.10;2.67;;;;;;;27.23;36.72;97401.03;5069504;28;20291;-76
2023/08/13 10:15:39;;;;;;;4.53;2.83;;;;;;;27.21;36.58;97363.13;5069255;28;20684;-74
2023/08/13 10:18:06;;;;;;;4.73;2.50;;;;;;;27.37;36.61;97401.25;5071461;28;20204;-75
2023/08/13 10:20:34;;;;;;;3.00;2.70;;;;;;;27.34;36.01;97406.06;5070913;28;20186;-76
2023/08/13 10:23:07;;;;;;;3.10;2.80;;;;;;;27.57;35.81;97384.97;5070477;28;20177;-78
2023/08/13 10:25:34;;;;;;;3.10;2.80;;;;;;;27.01;35.59;97298.81;5070838;28;20189;-80
2023/08/13 10:28:20;;;;;;;4.50;2.53;;;;;;;27.69;35.85;97389.78;5070224;28;20220;-77
2023/08/13 10:30:48;;;;;;;4.37;2.90;;;;;;;27.59;35.84;97390.94;5063984;28;20196;-79
2023/08/13 10:33:15;;;;;;;3.57;2.70;;;;;;;27.36;36.19;97370.34;5067602;28;20243;-77
2023/08/13 10:35:43;;;;;;;2.73;2.53;;;;;;;27.23;36.40;97348.69;5070294;28;20252;-80
2023/08/13 10:38:10;;;;;;;3.83;2.90;;;;;;;27.56;36.93;97375.31;5069700;28;20194;-77
2023/08/13 10:41:02;;;;;;;4.43;2.90;;;;;;;27.55;36.38;97377.16;5069775;28;20635;-76
2023/08/13 10:43:29;;;;;;;3.93;2.80;;;;;;;27.73;36.28;97379.63;5050245;28;20582;-76
2023/08/13 10:45:58;;;;;;;4.03;2.87;;;;;;;27.77;36.43;97376.47;5068119;28;20268;-77
2023/08/13 10:48:29;;;;;;;4.80;2.73;;;;;;;27.54;36.75;97358.66;5070110;28;20280;-76
2023/08/13 10:50:58;;;;;;;3.23;2.73;;;;;;;27.80;35.95;97369.97;5051504;28;20201;-76
2023/08/13 10:53:27;;;;;;;3.17;2.47;;;;;;;27.93;36.42;97370.25;5069789;28;20606;-75
2023/08/13 10:56:00;;;;;;;4.27;3.00;;;;;;;27.81;36.75;97363.63;5069676;28;20190;-77
2023/08/13 10:58:46;;;;;;;5.40;3.60;;;;;;;27.61;36.37;97359.69;5068085;28;20284;-76
2023/08/13 11:01:16;;;;;;;6.23;2.83;;;;;;;27.81;36.14;97360.97;5069616;28;20282;-76
2023/08/13 11:03:52;;;;;;;4.70;2.93;;;;;;;28.05;36.11;97356.44;5068972;28;20239;-78
2023/08/13 11:06:22;;;;;;;5.37;4.03;;;;;;;28.28;36.23;97369.88;5069689;28;20327;-75
2023/08/13 11:08:49;;;;;;;4.37;2.73;;;;;;;28.41;35.38;97366.66;5051310;28;20205;-75
2023/08/13 11:11:18;;;;;;;4.63;3.20;;;;;;;28.23;35.21;97356.25;5069291;28;20196;-75
2023/08/13 11:13:47;;;;;;;4.87;2.73;;;;;;;28.41;35.82;97362.16;5067907;28;20706;-75
2023/08/13 11:16:15;;;;;;;3.60;2.50;;;;;;;27.99;36.17;97351.81;5069178;28;20216;-78
2023/08/13 11:18:42;;;;;;;3.13;2.77;;;;;;;27.95;36.24;97344.28;5069835;28;20198;-78
2023/08/13 11:21:09;;;;;;;4.27;2.70;;;;;;;28.00;36.70;97363.31;5068678;28;20243;-74
2023/08/13 11:23:36;;;;;;;4.30;3.00;;;;;;;27.93;37.23;97331.16;5068107;28;20305;-75
2023/08/13 11:26:05;;;;;;;3.57;3.17;;;;;;;27.93;36.97;97338.31;5067558;28;20224;-74
2023/08/13 11:28:33;;;;;;;5.00;2.90;;;;;;;28.08;36.51;97347.28;5069315;28;20217;-75
2023/08/13 11:31:00;;;;;;;3.43;2.80;;;;;;;28.48;36.10;97327.66;5069070;28;20177;-74
2023/08/13 11:33:27;;;;;;;3.70;3.00;;;;;;;28.70;35.37;97289.56;5068840;28;20648;-76
2023/08/13 11:35:56;;;;;;;4.03;3.40;;;;;;;28.69;36.06;97320.72;5069196;28;20225;-75
2023/08/13 11:38:24;;;;;;;3.27;2.70;;;;;;;28.00;36.51;97334.84;5068693;28;20197;-78
2023/08/13 11:40:51;;;;;;;3.77;3.00;;;;;;;27.92;36.94;97326.84;5068980;28;20280;-76